Time;durP1;ratioP1;P1;durP2;ratioP2;P2;SDS_P1;SDS_P2;PMS_P1;PMS_P2;Temp;Humidity;BMP_temperature;BMP_pressure;BME280_temperature;BME280_humidity;BME280_pressure;Samples;Min_cycle;Max_cycle;Signal;HPM_P1;HPM_P2
2021/09/22 11:46:35;;;;;;;22.77;12.35;;;18.40;99.20;;;;;;5016454;28;20558;-85
2021/09/22 11:49:06;;;;;;;18.65;11.07;;;18.60;98.90;;;;;;4993474;28;20128;-86
2021/09/22 11:51:41;;;;;;;20.40;12.00;;;18.70;98.10;;;;;;5021701;28;20046;-87
2021/09/22 11:54:18;;;;;;;18.60;11.75;;;18.80;97.50;;;;;;5008379;28;20550;-85
2021/09/22 11:57:07;;;;;;;19.88;11.95;;;18.90;97.20;;;;;;5005851;28;20045;-86
2021/09/22 11:59:34;;;;;;;20.17;11.30;;;19.00;96.80;;;;;;5001500;28;20041;-87
2021/09/22 12:02:01;;;;;;;21.73;10.98;;;18.90;96.30;;;;;;5006355;28;20508;-89
2021/09/22 12:04:58;;;;;;;22.13;13.20;;;18.90;96.10;;;;;;4982934;28;20076;-87
2021/09/22 12:07:50;;;;;;;24.30;13.10;;;18.90;96.30;;;;;;4973705;28;20049;-86
2021/09/22 12:10:20;;;;;;;20.75;12.43;;;18.90;96.30;;;;;;4993890;28;20607;-89
2021/09/22 12:12:46;;;;;;;20.55;12.02;;;19.00;96.00;;;;;;5009511;28;20049;-89
2021/09/22 12:15:14;;;;;;;18.25;11.82;;;19.20;96.00;;;;;;5003371;28;20563;-88
2021/09/22 12:17:41;;;;;;;24.08;14.30;;;19.30;95.90;;;;;;5004488;28;20046;-85
2021/09/22 12:20:16;;;;;;;27.27;15.15;;;19.50;95.40;;;;;;4989887;28;20566;-87
2021/09/22 12:22:43;;;;;;;24.05;14.85;;;19.50;95.30;;;;;;4996328;28;20251;-86
2021/09/22 12:25:13;;;;;;;20.05;12.25;;;19.70;95.50;;;;;;5004937;28;20044;-84
2021/09/22 12:27:48;;;;;;;18.52;11.00;;;19.80;94.80;;;;;;5003927;28;20041;-86
2021/09/22 12:30:14;;;;;;;18.88;10.18;;;19.80;94.10;;;;;;5016001;28;20037;-86
2021/09/22 12:33:02;;;;;;;14.80;10.90;;;19.80;93.70;;;;;;5005391;28;20033;-87
2021/09/22 12:35:51;;;;;;;17.35;10.52;;;19.70;93.70;;;;;;5007798;28;20068;-86
2021/09/22 12:38:18;;;;;;;18.05;10.10;;;19.60;93.50;;;;;;5005541;28;20037;-87
2021/09/22 12:40:50;;;;;;;18.60;10.75;;;19.50;93.80;;;;;;5011538;28;20034;-85
2021/09/22 12:43:23;;;;;;;21.95;12.32;;;19.50;94.10;;;;;;5021977;28;20068;-87
2021/09/22 12:45:49;;;;;;;24.27;13.40;;;19.50;94.60;;;;;;5023324;28;20029;-85
2021/09/22 12:48:26;;;;;;;20.42;12.40;;;19.60;94.20;;;;;;5004336;28;20117;-88
2021/09/22 12:51:10;;;;;;;17.15;12.48;;;19.70;94.00;;;;;;5001976;28;20100;-85
2021/09/22 12:53:37;;;;;;;24.70;14.15;;;19.80;93.80;;;;;;4978134;28;20041;-87
2021/09/22 12:56:14;;;;;;;22.60;13.82;;;19.80;93.70;;;;;;4975789;28;20037;-87
2021/09/22 12:58:42;;;;;;;19.48;13.18;;;19.90;93.80;;;;;;4982316;28;20463;-86
2021/09/22 13:01:09;;;;;;;21.30;13.10;;;19.90;93.90;;;;;;4989964;28;20153;-85
2021/09/22 13:04:05;;;;;;;24.77;14.25;;;19.80;94.20;;;;;;4994848;28;20037;-90
2021/09/22 13:06:32;;;;;;;18.45;10.50;;;19.90;94.40;;;;;;4905455;28;20123;-85
2021/09/22 13:08:58;;;;;;;17.70;9.57;;;20.10;93.20;;;;;;5001521;28;20037;-87
2021/09/22 13:11:41;;;;;;;17.10;9.50;;;20.20;92.50;;;;;;4989567;28;20069;-85
2021/09/22 13:14:13;;;;;;;19.77;9.65;;;20.20;92.40;;;;;;4992662;28;20060;-86
2021/09/22 13:16:54;;;;;;;13.27;8.10;;;20.40;92.00;;;;;;4988405;28;20331;-85
2021/09/22 13:19:27;;;;;;;17.17;8.45;;;20.50;92.00;;;;;;4999041;28;20527;-85
2021/09/22 13:21:55;;;;;;;16.17;7.68;;;20.80;91.40;;;;;;4982172;28;20040;-86
2021/09/22 13:24:24;;;;;;;15.05;7.43;;;21.10;90.50;;;;;;4970566;28;20042;-85
2021/09/22 13:26:55;;;;;;;9.40;6.25;;;21.20;89.30;;;;;;4987908;28;20496;-86
2021/09/22 13:29:21;;;;;;;14.18;7.20;;;21.20;87.50;;;;;;4988703;28;20083;-86
2021/09/22 13:31:59;;;;;;;12.90;7.28;;;21.20;84.70;;;;;;4968013;28;20046;-84
2021/09/22 13:34:44;;;;;;;12.95;7.00;;;21.10;86.80;;;;;;4977213;28;20129;-86
2021/09/22 13:37:25;;;;;;;14.15;7.05;;;21.00;87.20;;;;;;4983044;28;20037;-88
2021/09/22 13:39:51;;;;;;;15.90;6.75;;;20.70;87.80;;;;;;4968227;28;20037;-88
2021/09/22 13:42:16;;;;;;;15.98;7.80;;;20.50;88.40;;;;;;4984332;28;20492;-87
2021/09/22 13:44:45;;;;;;;14.98;7.63;;;20.40;89.00;;;;;;4985863;28;20134;-86
2021/09/22 13:47:10;;;;;;;18.67;8.10;;;20.20;90.10;;;;;;4965076;28;20080;-86
2021/09/22 13:49:37;;;;;;;18.80;9.50;;;20.10;90.60;;;;;;4998399;28;20076;-87
2021/09/22 13:52:03;;;;;;;15.48;8.40;;;20.00;90.70;;;;;;4987683;28;20509;-86
2021/09/22 13:54:29;;;;;;;14.32;8.77;;;19.90;91.40;;;;;;4960973;28;20060;-87
2021/09/22 13:56:55;;;;;;;13.38;8.73;;;19.90;91.30;;;;;;4994020;28;20132;-85
2021/09/22 13:59:22;;;;;;;19.83;9.30;;;19.90;91.90;;;;;;4947432;28;20508;-86
2021/09/22 14:01:48;;;;;;;15.63;8.02;;;19.90;91.80;;;;;;4948794;28;20045;-85
2021/09/22 14:04:13;;;;;;;13.52;7.25;;;20.00;91.90;;;;;;4980011;28;20319;-85
2021/09/22 14:06:46;;;;;;;13.43;7.55;;;20.10;91.90;;;;;;4974778;28;20288;-87
2021/09/22 14:09:12;;;;;;;14.05;7.10;;;20.10;92.20;;;;;;4984325;28;20041;-84
2021/09/22 14:11:39;;;;;;;13.60;6.43;;;20.30;92.00;;;;;;4953014;28;20048;-85
2021/09/22 14:14:08;;;;;;;18.63;7.28;;;20.80;92.10;;;;;;4985453;28;20121;-85
2021/09/22 14:16:38;;;;;;;14.88;6.53;;;21.60;91.70;;;;;;4985542;28;20048;-87
2021/09/22 14:19:04;;;;;;;13.18;7.50;;;21.70;91.00;;;;;;4972517;28;20117;-87
2021/09/22 14:21:30;;;;;;;15.43;7.82;;;21.70;90.70;;;;;;4960980;28;20037;-84
2021/09/22 14:23:56;;;;;;;15.52;7.95;;;21.70;90.90;;;;;;4990000;28;21235;-88
2021/09/22 14:26:22;;;;;;;16.80;8.23;;;22.30;90.60;;;;;;4981539;28;20069;-88
2021/09/22 14:29:08;;;;;;;11.70;7.90;;;23.20;90.50;;;;;;4981407;28;20042;-88
2021/09/22 14:31:40;;;;;;;12.43;7.47;;;23.50;86.60;;;;;;4974401;28;20050;-89
2021/09/22 14:34:16;;;;;;;16.70;7.65;;;23.40;82.20;;;;;;4985642;28;20337;-89
2021/09/22 14:36:46;;;;;;;18.77;8.20;;;23.00;81.20;;;;;;4985017;28;20045;-90
2021/09/22 14:39:12;;;;;;;18.50;8.40;;;22.70;79.40;;;;;;4967738;28;20048;-86
2021/09/22 14:41:38;;;;;;;16.35;8.80;;;22.40;79.80;;;;;;4991001;28;20049;-86
2021/09/22 14:44:10;;;;;;;19.13;9.60;;;22.10;80.30;;;;;;4972008;28;20275;-88
2021/09/22 14:46:36;;;;;;;15.63;9.48;;;22.00;80.90;;;;;;4973511;28;20044;-90
2021/09/22 14:49:02;;;;;;;14.18;9.02;;;21.80;81.70;;;;;;4992187;28;20033;-89
2021/09/22 14:51:46;;;;;;;14.45;7.93;;;21.80;81.60;;;;;;4990677;28;20096;-90
2021/09/22 14:54:35;;;;;;;20.35;10.00;;;21.60;82.80;;;;;;5012810;28;20523;-88
2021/09/22 14:57:01;;;;;;;18.63;10.00;;;21.60;82.90;;;;;;4988369;28;20096;-87
2021/09/22 14:59:27;;;;;;;17.33;10.35;;;21.50;82.90;;;;;;5006860;28;20103;-86
2021/09/22 15:01:54;;;;;;;19.17;10.35;;;21.60;82.10;;;;;;5004988;28;20034;-86
2021/09/22 15:04:20;;;;;;;16.52;10.25;;;21.60;82.20;;;;;;4992056;28;20036;-86
2021/09/22 15:06:46;;;;;;;18.42;10.85;;;21.60;82.60;;;;;;4970208;28;20042;-87
2021/09/22 15:09:12;;;;;;;16.70;11.27;;;21.60;82.80;;;;;;5012328;28;20049;-86
2021/09/22 15:11:38;;;;;;;20.08;10.55;;;21.50;83.00;;;;;;4986550;28;20134;-87
2021/09/22 15:14:07;;;;;;;15.20;9.88;;;21.50;83.90;;;;;;4993399;28;20038;-88
2021/09/22 15:16:44;;;;;;;16.70;10.55;;;21.40;84.20;;;;;;4987836;28;20038;-91
2021/09/22 15:19:15;;;;;;;21.15;11.68;;;21.60;85.50;;;;;;5006961;28;20442;-88
2021/09/22 15:21:41;;;;;;;17.70;11.57;;;21.80;83.50;;;;;;4989828;28;20125;-86
2021/09/22 15:24:07;;;;;;;18.98;11.32;;;21.90;82.70;;;;;;5003214;28;20072;-86
2021/09/22 15:26:33;;;;;;;21.00;10.75;;;22.10;82.20;;;;;;5004678;28;20041;-90
2021/09/22 15:28:59;;;;;;;18.92;9.48;;;22.20;81.80;;;;;;4990333;28;20420;-84
2021/09/22 15:31:25;;;;;;;17.63;9.48;;;22.60;81.40;;;;;;4985266;28;20045;-89
2021/09/22 15:33:51;;;;;;;17.17;9.85;;;22.90;79.00;;;;;;5006288;28;20120;-88
2021/09/22 15:36:17;;;;;;;16.75;9.98;;;22.80;78.50;;;;;;5006431;28;20040;-86
2021/09/22 15:38:46;;;;;;;17.85;10.57;;;22.60;78.40;;;;;;4977543;28;20049;-89
2021/09/22 15:41:17;;;;;;;18.08;9.88;;;22.80;78.10;;;;;;5006761;28;20041;-89
2021/09/22 15:43:58;;;;;;;18.27;9.13;;;23.30;76.70;;;;;;5006596;28;20037;-88
2021/09/22 15:46:28;;;;;;;15.97;9.00;;;23.20;76.00;;;;;;4997490;28;20378;-87
2021/09/22 15:48:53;;;;;;;15.02;9.38;;;22.90;76.10;;;;;;4981626;28;20304;-89
2021/09/22 15:51:25;;;;;;;16.63;8.65;;;22.50;76.90;;;;;;4991921;28;20030;-88
2021/09/22 15:53:51;;;;;;;13.93;8.45;;;22.10;78.50;;;;;;4958176;28;20064;-88
2021/09/22 15:56:20;;;;;;;19.58;9.57;;;21.80;79.70;;;;;;5002807;28;20404;-90
2021/09/22 15:58:46;;;;;;;12.13;8.68;;;21.50;81.20;;;;;;4975664;28;20053;-88
2021/09/22 16:01:16;;;;;;;14.18;9.18;;;21.30;81.80;;;;;;5003583;28;20053;-89
2021/09/22 16:03:43;;;;;;;14.52;9.57;;;21.10;83.10;;;;;;4988629;28;20042;-89
2021/09/22 16:06:11;;;;;;;16.25;9.25;;;20.90;84.10;;;;;;4982214;28;20059;-89
2021/09/22 16:08:37;;;;;;;16.10;8.95;;;20.80;85.30;;;;;;4977405;28;20406;-91
2021/09/22 16:11:04;;;;;;;19.05;9.07;;;20.70;86.00;;;;;;4985998;28;20045;-89
2021/09/22 16:13:32;;;;;;;13.18;8.00;;;20.60;86.80;;;;;;4998646;28;20048;-87
2021/09/22 16:16:08;;;;;;;15.07;9.32;;;20.50;87.40;;;;;;4982721;28;20694;-90
2021/09/22 16:18:49;;;;;;;19.58;8.93;;;20.40;88.40;;;;;;4999823;28;20126;-88
2021/09/22 16:21:15;;;;;;;12.23;8.63;;;20.30;89.50;;;;;;5005250;28;20044;-89
2021/09/22 16:23:41;;;;;;;17.98;10.40;;;20.20;89.00;;;;;;4998924;28;20168;-88
2021/09/22 16:26:07;;;;;;;13.50;7.93;;;20.20;89.50;;;;;;4999975;28;20128;-88
2021/09/22 16:28:36;;;;;;;16.08;8.32;;;20.10;89.30;;;;;;5010044;28;20042;-86
2021/09/22 16:31:05;;;;;;;16.20;8.57;;;20.00;89.60;;;;;;4969649;28;20040;-87
2021/09/22 16:33:34;;;;;;;13.75;8.75;;;20.00;90.10;;;;;;5002048;28;20129;-87
2021/09/22 16:36:01;;;;;;;15.63;8.27;;;19.90;90.30;;;;;;5001502;28;20112;-88
2021/09/22 16:38:30;;;;;;;20.38;9.57;;;19.80;90.20;;;;;;4972500;28;20216;-87
2021/09/22 16:40:56;;;;;;;18.00;10.30;;;19.80;90.40;;;;;;5002394;28;20495;-88
2021/09/22 16:43:23;;;;;;;17.83;9.15;;;19.70;90.50;;;;;;4993298;28;20045;-87
2021/09/22 16:45:51;;;;;;;16.08;9.80;;;19.60;90.60;;;;;;4988459;28;20065;-87
2021/09/22 16:48:17;;;;;;;12.35;8.15;;;19.60;90.70;;;;;;4989482;28;20443;-88
2021/09/22 16:50:42;;;;;;;15.20;8.75;;;19.50;90.80;;;;;;5004783;28;20034;-88
2021/09/22 16:53:14;;;;;;;13.07;8.30;;;19.40;90.90;;;;;;5005315;28;20491;-87
2021/09/22 16:55:40;;;;;;;12.30;8.75;;;19.30;91.10;;;;;;4989716;28;20034;-88
2021/09/22 16:58:06;;;;;;;17.95;8.73;;;19.30;91.40;;;;;;4987749;28;20073;-87
2021/09/22 17:00:32;;;;;;;17.63;8.75;;;19.20;91.50;;;;;;5005311;28;20081;-86
2021/09/22 17:03:10;;;;;;;14.27;8.43;;;19.10;91.70;;;;;;4992134;28;20079;-85
2021/09/22 17:05:37;;;;;;;17.27;7.85;;;19.00;91.90;;;;;;4995475;28;20102;-88
2021/09/22 17:08:04;;;;;;;13.25;8.40;;;18.90;92.10;;;;;;4993312;28;20029;-88
2021/09/22 17:10:33;;;;;;;17.25;9.15;;;18.80;92.30;;;;;;4993997;28;20095;-87
2021/09/22 17:13:07;;;;;;;14.57;8.77;;;18.70;92.40;;;;;;5006233;28;20563;-86
2021/09/22 17:15:35;;;;;;;13.32;8.70;;;18.70;92.50;;;;;;5007426;28;20179;-84
2021/09/22 17:18:03;;;;;;;17.80;9.40;;;18.60;92.70;;;;;;5006064;28;20037;-88
2021/09/22 17:20:29;;;;;;;16.63;9.10;;;18.50;92.60;;;;;;5008316;28;20037;-87
2021/09/22 17:23:21;;;;;;;15.75;9.73;;;18.40;92.70;;;;;;4993079;28;20156;-87
2021/09/22 17:25:57;;;;;;;19.08;10.18;;;18.30;92.80;;;;;;5008765;28;20132;-86
2021/09/22 17:28:23;;;;;;;18.75;9.90;;;18.30;92.90;;;;;;5002029;28;20033;-85
2021/09/22 17:35:22;;;;;;;21.08;10.75;;;18.10;93.20;;;;;;4894068;29;20622;-88
2021/09/22 17:38:04;;;;;;;23.35;10.23;;;18.00;93.30;;;;;;4881719;28;20046;-85
2021/09/22 17:40:36;;;;;;;19.15;10.55;;;17.80;93.40;;;;;;4968876;28;20042;-87
2021/09/22 17:43:09;;;;;;;19.92;10.20;;;17.80;93.50;;;;;;4954643;28;20541;-86
2021/09/22 17:45:35;;;;;;;19.00;10.15;;;17.70;93.70;;;;;;4954891;28;20045;-86
2021/09/22 17:48:02;;;;;;;16.50;9.65;;;17.60;93.80;;;;;;4943514;28;20086;-86
2021/09/22 17:50:28;;;;;;;20.95;10.70;;;17.50;94.00;;;;;;4936111;28;20078;-87
2021/09/22 17:52:55;;;;;;;19.80;10.13;;;17.40;94.00;;;;;;4944733;28;20041;-87
2021/09/22 17:55:24;;;;;;;21.80;9.93;;;17.40;94.20;;;;;;4955669;28;20060;-86
2021/09/22 17:58:10;;;;;;;17.45;10.10;;;17.30;94.30;;;;;;4949086;28;20530;-86
2021/09/22 18:00:45;;;;;;;16.55;9.48;;;17.30;94.50;;;;;;4970846;28;20042;-88
2021/09/22 18:03:11;;;;;;;18.88;10.02;;;17.10;94.50;;;;;;4968509;28;20108;-87
2021/09/22 18:05:37;;;;;;;15.50;9.48;;;17.10;94.70;;;;;;4985866;28;20053;-87
2021/09/22 18:08:04;;;;;;;20.17;10.20;;;17.00;94.80;;;;;;4996529;28;20051;-85
2021/09/22 18:10:30;;;;;;;15.95;9.55;;;16.90;95.10;;;;;;5007990;28;20029;-86
2021/09/22 18:13:00;;;;;;;14.70;9.48;;;16.90;95.30;;;;;;4996668;28;20123;-86
2021/09/22 18:15:26;;;;;;;13.20;8.82;;;16.80;95.40;;;;;;5023512;28;20025;-88
2021/09/22 18:17:51;;;;;;;14.80;8.82;;;16.80;95.60;;;;;;4992705;28;20736;-87
2021/09/22 18:20:18;;;;;;;13.63;8.25;;;16.70;95.70;;;;;;5008384;28;20033;-88
2021/09/22 18:22:44;;;;;;;15.93;8.95;;;16.70;95.80;;;;;;4991553;28;20424;-88
2021/09/22 18:25:35;;;;;;;;;;;;;;;;;;;;;
2021/09/22 18:28:01;;;;;;;18.83;9.57;;;16.60;96.10;;;;;;5012042;28;20033;-87
2021/09/22 18:30:27;;;;;;;16.52;10.00;;;16.50;96.20;;;;;;4995576;28;20033;-88
2021/09/22 18:32:53;;;;;;;19.20;10.43;;;16.50;96.40;;;;;;5008993;28;20057;-86
2021/09/22 18:35:19;;;;;;;16.77;9.88;;;16.50;96.60;;;;;;4995181;28;20488;-87
2021/09/22 18:37:55;;;;;;;18.88;9.95;;;16.40;96.70;;;;;;5009876;28;20675;-87
2021/09/22 18:40:49;;;;;;;18.98;10.57;;;16.40;96.80;;;;;;5001998;28;20037;-86
2021/09/22 18:43:23;;;;;;;19.83;10.48;;;16.30;96.90;;;;;;5003439;28;20053;-87
2021/09/22 18:45:56;;;;;;;16.17;10.38;;;16.30;97.00;;;;;;5006801;28;20045;-86
2021/09/22 18:48:29;;;;;;;17.73;10.48;;;16.30;97.10;;;;;;5021917;28;20403;-87
2021/09/22 18:51:05;;;;;;;20.02;10.15;;;16.20;97.10;;;;;;4990464;28;20673;-86
2021/09/22 18:53:41;;;;;;;23.55;11.40;;;16.20;97.20;;;;;;5004458;28;20064;-87
2021/09/22 18:56:17;;;;;;;19.33;11.45;;;16.20;97.30;;;;;;4992774;28;20029;-85
2021/09/22 18:59:04;;;;;;;17.85;10.65;;;16.10;97.40;;;;;;5021241;28;20033;-87
2021/09/22 19:01:36;;;;;;;15.20;10.75;;;16.10;97.40;;;;;;5004361;28;20069;-88
2021/09/22 19:04:04;;;;;;;19.35;11.70;;;16.00;97.50;;;;;;4998553;28;20064;-86
2021/09/22 19:06:32;;;;;;;17.90;12.10;;;16.00;97.80;;;;;;5004879;28;20648;-86
2021/09/22 19:09:17;;;;;;;17.13;11.45;;;16.00;97.60;;;;;;5002013;28;20411;-88
2021/09/22 19:12:10;;;;;;;;;;;;;;;;;;;;;
2021/09/22 19:14:37;;;;;;;19.42;11.68;;;15.90;97.80;;;;;;4998458;28;20033;-87
2021/09/22 19:17:06;;;;;;;19.27;12.23;;;15.80;97.80;;;;;;5004570;28;20029;-88
2021/09/22 19:19:38;;;;;;;19.95;12.70;;;15.80;98.00;;;;;;5013433;28;20088;-86
2021/09/22 19:22:14;;;;;;;20.65;12.30;;;15.80;98.10;;;;;;4984882;28;20064;-86
2021/09/22 19:24:41;;;;;;;19.63;12.43;;;15.70;98.20;;;;;;4983995;28;20049;-86
2021/09/22 19:27:14;;;;;;;22.52;12.73;;;15.70;98.40;;;;;;5005122;28;20037;-86
2021/09/22 19:29:43;;;;;;;17.50;12.80;;;15.70;98.40;;;;;;5004729;28;20034;-87
2021/09/22 19:32:28;;;;;;;22.20;12.35;;;15.60;98.40;;;;;;4998782;28;20044;-86
2021/09/22 19:35:01;;;;;;;20.33;12.85;;;15.60;98.50;;;;;;5021245;28;20037;-86
2021/09/22 19:37:27;;;;;;;17.95;13.52;;;15.60;98.60;;;;;;5008243;28;20037;-87
2021/09/22 19:39:53;;;;;;;21.80;13.35;;;15.50;98.60;;;;;;4979167;28;20042;-91
2021/09/22 19:42:20;;;;;;;21.95;13.07;;;15.50;98.70;;;;;;5007515;28;20128;-87
2021/09/22 19:44:46;;;;;;;22.15;14.25;;;15.50;98.90;;;;;;5009262;28;20500;-85
2021/09/22 19:47:12;;;;;;;21.20;13.88;;;15.40;98.90;;;;;;4992766;28;20041;-87
2021/09/22 19:49:38;;;;;;;24.98;14.55;;;15.40;99.00;;;;;;5006119;28;20112;-85
2021/09/22 19:52:05;;;;;;;22.38;15.27;;;15.30;99.20;;;;;;4990366;28;20125;-86
2021/09/22 19:54:31;;;;;;;22.92;15.55;;;15.30;99.30;;;;;;5005886;28;20041;-87
2021/09/22 19:56:57;;;;;;;21.50;15.45;;;15.30;99.40;;;;;;4992642;28;20088;-86
2021/09/22 19:59:23;;;;;;;22.50;15.52;;;15.30;99.50;;;;;;4990347;28;20069;-86
2021/09/22 20:01:49;;;;;;;23.65;15.63;;;15.30;99.60;;;;;;4990355;28;20113;-85
2021/09/22 20:04:15;;;;;;;27.55;16.13;;;15.20;99.70;;;;;;5007389;28;20547;-85
2021/09/22 20:06:42;;;;;;;22.27;17.50;;;15.20;99.70;;;;;;5008725;28;20041;-85
2021/09/22 20:09:09;;;;;;;28.25;19.15;;;15.20;99.70;;;;;;4991587;28;20195;-87
2021/09/22 20:11:37;;;;;;;27.70;18.13;;;15.20;99.70;;;;;;4978109;28;20124;-85
2021/09/22 20:14:08;;;;;;;30.40;19.05;;;15.10;99.80;;;;;;5007370;28;20042;-84
2021/09/22 20:16:34;;;;;;;29.67;19.83;;;15.10;99.90;;;;;;5024574;28;20034;-86
2021/09/22 20:19:00;;;;;;;29.10;19.33;;;15.00;99.90;;;;;;4974588;28;20060;-85
2021/09/22 20:21:27;;;;;;;32.30;19.90;;;14.90;99.90;;;;;;5007420;28;20385;-85
2021/09/22 20:23:52;;;;;;;33.42;20.60;;;14.90;99.90;;;;;;5005291;28;20831;-85
2021/09/22 20:26:20;;;;;;;31.33;21.63;;;14.90;99.90;;;;;;4986029;28;20038;-85
2021/09/22 20:28:47;;;;;;;29.27;21.65;;;14.80;99.90;;;;;;5009932;28;20042;-86
2021/09/22 20:31:14;;;;;;;32.38;20.60;;;14.80;99.90;;;;;;5000783;28;20029;-86
2021/09/22 20:33:40;;;;;;;30.73;20.70;;;14.80;99.90;;;;;;5000238;28;20033;-84
2021/09/22 20:36:09;;;;;;;34.75;22.33;;;14.70;99.90;;;;;;5005616;28;20053;-84
2021/09/22 20:38:36;;;;;;;32.63;20.55;;;14.70;99.90;;;;;;4994311;28;20044;-86
2021/09/22 20:41:03;;;;;;;33.78;20.60;;;14.70;99.90;;;;;;5007710;28;20037;-86
2021/09/22 20:43:29;;;;;;;29.83;20.27;;;14.70;99.90;;;;;;4983849;28;20065;-87
2021/09/22 20:45:55;;;;;;;28.73;21.17;;;14.70;99.90;;;;;;4990889;28;20492;-90
2021/09/22 20:48:21;;;;;;;33.08;21.83;;;14.70;99.90;;;;;;4991171;28;20048;-87
2021/09/22 20:50:51;;;;;;;30.77;21.15;;;14.70;99.90;;;;;;5003102;28;20041;-89
2021/09/22 20:53:17;;;;;;;32.97;21.35;;;14.70;99.90;;;;;;5007551;28;20034;-87
2021/09/22 20:55:43;;;;;;;33.60;22.75;;;14.70;99.90;;;;;;5004901;28;20128;-89
2021/09/22 20:58:11;;;;;;;33.05;22.30;;;14.70;99.90;;;;;;5009995;28;20235;-89
2021/09/22 21:00:39;;;;;;;33.55;22.23;;;14.60;99.90;;;;;;5009204;28;20072;-87
2021/09/22 21:03:16;;;;;;;32.80;22.30;;;14.60;99.90;;;;;;4974930;28;20231;-88
2021/09/22 21:05:43;;;;;;;32.58;22.02;;;14.60;99.90;;;;;;5008267;28;20037;-88
2021/09/22 21:08:09;;;;;;;33.25;22.90;;;14.60;99.90;;;;;;5004544;28;20485;-87
2021/09/22 21:10:35;;;;;;;33.38;22.35;;;14.60;99.90;;;;;;5004227;28;20129;-87
2021/09/22 21:13:07;;;;;;;33.03;22.50;;;14.60;99.90;;;;;;5003532;28;20033;-87
2021/09/22 21:15:36;;;;;;;34.88;22.73;;;14.60;99.90;;;;;;5007434;28;20046;-89
2021/09/22 21:18:22;;;;;;;37.50;24.05;;;14.60;99.90;;;;;;5009024;28;20198;-88
2021/09/22 21:20:48;;;;;;;38.60;24.23;;;14.50;99.90;;;;;;4993150;28;20381;-87
2021/09/22 21:23:27;;;;;;;33.00;24.85;;;14.50;99.90;;;;;;4994147;28;20057;-87
2021/09/22 21:25:53;;;;;;;41.03;26.23;;;14.40;99.90;;;;;;5008126;28;20077;-89
2021/09/22 21:28:20;;;;;;;35.10;25.55;;;14.50;99.90;;;;;;5011842;28;20514;-87
2021/09/22 21:30:47;;;;;;;36.95;25.95;;;14.40;99.90;;;;;;5006665;28;20045;-90
2021/09/22 21:33:16;;;;;;;37.65;26.65;;;14.40;99.90;;;;;;5007723;28;20045;-88
2021/09/22 21:36:08;;;;;;;38.80;26.83;;;14.30;99.90;;;;;;5006981;28;20053;-87
2021/09/22 21:38:34;;;;;;;40.43;27.97;;;14.30;99.90;;;;;;5005554;28;20064;-86
2021/09/22 21:41:00;;;;;;;42.38;28.00;;;14.30;99.90;;;;;;5007874;28;20375;-89
2021/09/22 21:43:26;;;;;;;39.80;27.25;;;14.30;99.90;;;;;;4991843;28;20038;-88
2021/09/22 21:46:00;;;;;;;41.55;27.92;;;14.30;99.90;;;;;;4990432;28;20049;-88
2021/09/22 21:48:31;;;;;;;43.30;28.67;;;14.20;99.90;;;;;;5007033;28;20034;-87
2021/09/22 21:51:04;;;;;;;40.13;27.33;;;14.20;99.90;;;;;;4991416;28;22233;-86
2021/09/22 21:53:30;;;;;;;44.80;29.58;;;14.20;99.90;;;;;;4983714;28;20419;-86
2021/09/22 21:56:00;;;;;;;41.35;27.77;;;14.20;99.90;;;;;;4986185;28;20504;-87
2021/09/22 21:58:27;;;;;;;41.45;28.63;;;14.10;99.90;;;;;;5006855;28;20091;-88
2021/09/22 22:00:56;;;;;;;43.55;29.38;;;14.10;99.90;;;;;;5006250;28;20292;-88
2021/09/22 22:03:22;;;;;;;42.55;29.70;;;14.00;99.90;;;;;;5004476;28;20118;-88
2021/09/22 22:05:49;;;;;;;43.63;31.50;;;14.00;99.90;;;;;;4972791;28;20049;-87
2021/09/22 22:08:15;;;;;;;51.28;32.17;;;13.90;99.90;;;;;;4972361;28;20121;-88
2021/09/22 22:10:42;;;;;;;43.45;31.40;;;13.90;99.90;;;;;;5003916;28;20103;-85
2021/09/22 22:13:07;;;;;;;43.33;31.35;;;13.90;99.90;;;;;;5016011;28;20042;-85
2021/09/22 22:15:33;;;;;;;46.97;31.30;;;13.90;99.90;;;;;;4997605;28;20099;-85
2021/09/22 22:18:01;;;;;;;48.17;34.50;;;13.80;99.90;;;;;;5003733;28;20037;-85
2021/09/22 22:20:30;;;;;;;45.95;32.17;;;13.80;99.90;;;;;;4988221;28;20072;-86
2021/09/22 22:22:56;;;;;;;46.08;32.30;;;13.70;99.90;;;;;;5002836;28;20041;-87
2021/09/22 22:25:22;;;;;;;48.40;33.35;;;13.70;99.90;;;;;;4984351;28;20530;-86
2021/09/22 22:27:48;;;;;;;46.17;34.20;;;13.60;99.90;;;;;;5005106;28;20467;-85
2021/09/22 22:30:15;;;;;;;46.78;34.75;;;13.50;99.90;;;;;;5003378;28;20041;-86
2021/09/22 22:32:42;;;;;;;48.03;34.25;;;13.50;99.90;;;;;;4984661;28;20044;-85
2021/09/22 22:35:09;;;;;;;50.58;35.28;;;13.40;99.90;;;;;;5017177;28;20497;-87
2021/09/22 22:37:35;;;;;;;50.03;34.65;;;13.40;99.90;;;;;;4985708;28;20068;-87
2021/09/22 22:40:02;;;;;;;50.28;36.20;;;13.30;99.90;;;;;;5015028;28;20103;-85
2021/09/22 22:42:32;;;;;;;46.28;34.38;;;13.30;99.90;;;;;;4988635;28;20041;-86
2021/09/22 22:44:58;;;;;;;53.72;36.53;;;13.20;99.90;;;;;;5003808;28;20124;-86
2021/09/22 22:47:24;;;;;;;51.15;36.13;;;13.20;99.90;;;;;;4984039;28;21076;-86
2021/09/22 22:49:50;;;;;;;49.83;36.38;;;13.20;99.90;;;;;;4987525;28;20042;-85
2021/09/22 22:52:17;;;;;;;47.42;36.33;;;13.20;99.90;;;;;;5000719;28;20133;-85
2021/09/22 22:54:43;;;;;;;52.00;35.83;;;13.10;99.90;;;;;;5004329;28;20037;-86
2021/09/22 22:57:09;;;;;;;52.00;36.65;;;13.10;99.90;;;;;;4970676;28;20095;-87
2021/09/22 22:59:34;;;;;;;59.55;36.60;;;13.10;99.90;;;;;;5000841;28;20076;-86
2021/09/22 23:02:00;;;;;;;49.45;34.92;;;13.00;99.90;;;;;;4985890;28;20507;-86
2021/09/22 23:04:26;;;;;;;49.83;35.42;;;13.00;99.90;;;;;;4988217;28;20033;-88
2021/09/22 23:06:52;;;;;;;53.03;35.78;;;13.00;99.90;;;;;;4989762;28;20795;-85
2021/09/22 23:09:18;;;;;;;52.42;35.33;;;13.00;99.90;;;;;;4969513;28;20513;-85
2021/09/22 23:11:43;;;;;;;49.95;35.25;;;13.00;99.90;;;;;;4969603;28;20030;-84
2021/09/22 23:14:09;;;;;;;50.22;34.90;;;12.90;99.90;;;;;;5005856;28;20072;-86
2021/09/22 23:16:36;;;;;;;46.05;34.20;;;12.90;99.90;;;;;;4969262;28;20052;-84
2021/09/22 23:19:18;;;;;;;52.40;33.65;;;12.90;99.90;;;;;;5019292;28;20056;-85
2021/09/22 23:24:16;;;;;;;42.25;32.85;;;12.80;99.90;;;;;;5022708;28;20466;-86
2021/09/22 23:26:42;;;;;;;44.70;32.88;;;12.80;99.90;;;;;;5003139;28;20129;-85
2021/09/22 23:29:08;;;;;;;48.25;32.92;;;12.80;99.90;;;;;;4985665;28;20037;-85
2021/09/22 23:31:34;;;;;;;44.92;31.77;;;12.70;99.90;;;;;;4989254;28;20038;-84
2021/09/22 23:34:00;;;;;;;47.33;32.58;;;12.70;99.90;;;;;;4990177;28;20040;-84
2021/09/22 23:36:27;;;;;;;43.70;31.08;;;12.70;99.90;;;;;;4990662;28;20431;-84
2021/09/22 23:38:54;;;;;;;48.38;30.92;;;12.70;99.90;;;;;;4974282;28;20056;-85
2021/09/22 23:41:20;;;;;;;46.42;31.23;;;12.70;99.90;;;;;;4989751;28;20121;-84
2021/09/22 23:43:46;;;;;;;43.58;30.85;;;12.60;99.90;;;;;;5004327;28;20086;-86
2021/09/22 23:46:12;;;;;;;44.55;31.65;;;12.60;99.90;;;;;;5006533;28;20396;-86
2021/09/22 23:48:37;;;;;;;42.15;29.83;;;12.50;99.90;;;;;;5006876;28;20509;-86
2021/09/22 23:51:03;;;;;;;42.65;30.55;;;12.50;99.90;;;;;;5003757;28;20132;-86
2021/09/22 23:53:32;;;;;;;44.25;31.48;;;12.50;99.90;;;;;;5005845;28;20050;-86
2021/09/22 23:55:57;;;;;;;44.15;30.77;;;12.50;99.90;;;;;;5018823;28;20566;-86
2021/09/22 23:58:23;;;;;;;43.03;29.85;;;12.40;99.90;;;;;;5005306;28;20685;-86
